sensor_id;sensor_type;location;lat;lon;timestamp;temperature;humidity
76936;DHT22;65881;52.438;16.744;2023-02-15T00:01:31;-2.30;96.30
76936;DHT22;65881;52.438;16.744;2023-02-15T00:03:57;-2.30;96.10
76936;DHT22;65881;52.438;16.744;2023-02-15T00:06:23;-2.30;96.20
76936;DHT22;65881;52.438;16.744;2023-02-15T00:08:49;-2.30;96.20
76936;DHT22;65881;52.438;16.744;2023-02-15T00:11:16;-2.40;96.20
76936;DHT22;65881;52.438;16.744;2023-02-15T00:14:04;-2.40;96.50
76936;DHT22;65881;52.438;16.744;2023-02-15T00:16:30;-2.40;96.60
76936;DHT22;65881;52.438;16.744;2023-02-15T00:18:55;-2.50;96.90
76936;DHT22;65881;52.438;16.744;2023-02-15T00:21:21;-2.50;96.90
76936;DHT22;65881;52.438;16.744;2023-02-15T00:23:47;-2.60;97.10
76936;DHT22;65881;52.438;16.744;2023-02-15T00:26:12;-2.60;97.60
76936;DHT22;65881;52.438;16.744;2023-02-15T00:28:38;-2.60;98.30
76936;DHT22;65881;52.438;16.744;2023-02-15T00:31:09;-2.60;98.50
76936;DHT22;65881;52.438;16.744;2023-02-15T00:33:35;-2.60;98.70
76936;DHT22;65881;52.438;16.744;2023-02-15T00:36:02;-2.70;98.90
76936;DHT22;65881;52.438;16.744;2023-02-15T00:38:29;-2.70;99.30
76936;DHT22;65881;52.438;16.744;2023-02-15T00:40:56;-2.70;99.20
76936;DHT22;65881;52.438;16.744;2023-02-15T00:43:22;-2.70;99.20
76936;DHT22;65881;52.438;16.744;2023-02-15T00:45:48;-2.70;98.90
76936;DHT22;65881;52.438;16.744;2023-02-15T00:48:14;-2.70;98.70
76936;DHT22;65881;52.438;16.744;2023-02-15T00:50:45;-2.70;98.30
76936;DHT22;65881;52.438;16.744;2023-02-15T00:53:11;-2.70;98.20
76936;DHT22;65881;52.438;16.744;2023-02-15T00:55:37;-2.70;98.20
76936;DHT22;65881;52.438;16.744;2023-02-15T00:58:02;-2.80;98.00
76936;DHT22;65881;52.438;16.744;2023-02-15T01:00:28;-2.80;97.90
76936;DHT22;65881;52.438;16.744;2023-02-15T01:02:54;-2.80;97.90
76936;DHT22;65881;52.438;16.744;2023-02-15T01:05:19;-2.80;97.70
76936;DHT22;65881;52.438;16.744;2023-02-15T01:07:45;-2.80;97.70
76936;DHT22;65881;52.438;16.744;2023-02-15T01:10:11;-2.80;97.90
76936;DHT22;65881;52.438;16.744;2023-02-15T01:12:36;-2.80;98.00
76936;DHT22;65881;52.438;16.744;2023-02-15T01:15:02;-2.80;98.20
76936;DHT22;65881;52.438;16.744;2023-02-15T01:17:28;-2.80;98.10
76936;DHT22;65881;52.438;16.744;2023-02-15T01:19:54;-2.80;98.10
76936;DHT22;65881;52.438;16.744;2023-02-15T01:22:20;-2.80;97.90
76936;DHT22;65881;52.438;16.744;2023-02-15T01:24:48;-2.80;97.90
76936;DHT22;65881;52.438;16.744;2023-02-15T01:27:14;-2.90;97.70
76936;DHT22;65881;52.438;16.744;2023-02-15T01:29:39;-2.90;97.70
76936;DHT22;65881;52.438;16.744;2023-02-15T01:32:05;-2.90;97.60
76936;DHT22;65881;52.438;16.744;2023-02-15T01:34:34;-2.90;98.00
76936;DHT22;65881;52.438;16.744;2023-02-15T01:37:00;-2.90;98.20
76936;DHT22;65881;52.438;16.744;2023-02-15T01:39:27;-2.80;98.60
76936;DHT22;65881;52.438;16.744;2023-02-15T01:41:53;-2.80;98.60
76936;DHT22;65881;52.438;16.744;2023-02-15T01:44:45;-2.80;98.40
76936;DHT22;65881;52.438;16.744;2023-02-15T01:47:17;-2.80;98.80
76936;DHT22;65881;52.438;16.744;2023-02-15T01:49:45;-2.70;98.80
76936;DHT22;65881;52.438;16.744;2023-02-15T01:52:15;-2.70;98.50
76936;DHT22;65881;52.438;16.744;2023-02-15T01:54:43;-2.80;98.00
76936;DHT22;65881;52.438;16.744;2023-02-15T01:57:17;-2.80;97.90
76936;DHT22;65881;52.438;16.744;2023-02-15T01:59:50;-2.90;97.70
76936;DHT22;65881;52.438;16.744;2023-02-15T02:02:18;-2.90;97.60
76936;DHT22;65881;52.438;16.744;2023-02-15T02:04:51;-3.00;97.30
76936;DHT22;65881;52.438;16.744;2023-02-15T02:07:20;-3.00;97.20
76936;DHT22;65881;52.438;16.744;2023-02-15T02:09:48;-3.00;97.10
76936;DHT22;65881;52.438;16.744;2023-02-15T02:12:17;-3.00;97.00
76936;DHT22;65881;52.438;16.744;2023-02-15T02:14:45;-3.00;97.10
76936;DHT22;65881;52.438;16.744;2023-02-15T02:34:14;-3.20;97.70
76936;DHT22;65881;52.438;16.744;2023-02-15T02:42:20;-3.40;98.00
76936;DHT22;65881;52.438;16.744;2023-02-15T02:44:51;-3.40;98.00
76936;DHT22;65881;52.438;16.744;2023-02-15T02:47:23;-3.40;98.20
76936;DHT22;65881;52.438;16.744;2023-02-15T02:50:00;-3.40;98.00
76936;DHT22;65881;52.438;16.744;2023-02-15T02:52:38;-3.40;98.00
76936;DHT22;65881;52.438;16.744;2023-02-15T02:55:11;-3.40;98.10
76936;DHT22;65881;52.438;16.744;2023-02-15T03:00:20;-3.50;98.50
76936;DHT22;65881;52.438;16.744;2023-02-15T03:02:50;-3.50;98.80
76936;DHT22;65881;52.438;16.744;2023-02-15T03:05:21;-3.50;98.80
76936;DHT22;65881;52.438;16.744;2023-02-15T03:07:50;-3.50;98.80
76936;DHT22;65881;52.438;16.744;2023-02-15T03:10:18;-3.50;98.60
76936;DHT22;65881;52.438;16.744;2023-02-15T03:12:46;-3.50;98.80
76936;DHT22;65881;52.438;16.744;2023-02-15T03:15:24;-3.50;98.90
76936;DHT22;65881;52.438;16.744;2023-02-15T03:17:57;-3.40;99.40
76936;DHT22;65881;52.438;16.744;2023-02-15T03:20:32;-3.20;99.90
76936;DHT22;65881;52.438;16.744;2023-02-15T03:23:03;-3.10;99.90
76936;DHT22;65881;52.438;16.744;2023-02-15T03:25:35;-3.10;99.90
76936;DHT22;65881;52.438;16.744;2023-02-15T03:28:13;-3.00;99.90
76936;DHT22;65881;52.438;16.744;2023-02-15T03:30:42;-2.90;99.90
76936;DHT22;65881;52.438;16.744;2023-02-15T03:33:09;-2.80;99.90
76936;DHT22;65881;52.438;16.744;2023-02-15T03:35:43;-2.90;99.90
76936;DHT22;65881;52.438;16.744;2023-02-15T03:38:13;-2.80;99.90
76936;DHT22;65881;52.438;16.744;2023-02-15T03:40:44;-2.80;99.90
76936;DHT22;65881;52.438;16.744;2023-02-15T03:49:15;-2.70;99.90
76936;DHT22;65881;52.438;16.744;2023-02-15T03:51:44;-2.70;99.90
76936;DHT22;65881;52.438;16.744;2023-02-15T03:54:19;-2.70;99.90
76936;DHT22;65881;52.438;16.744;2023-02-15T03:57:07;-2.70;99.90
76936;DHT22;65881;52.438;16.744;2023-02-15T03:59:51;-2.80;99.90
76936;DHT22;65881;52.438;16.744;2023-02-15T04:02:44;-2.80;99.90
76936;DHT22;65881;52.438;16.744;2023-02-15T04:05:11;-2.90;99.90
76936;DHT22;65881;52.438;16.744;2023-02-15T04:07:37;-3.00;99.90
76936;DHT22;65881;52.438;16.744;2023-02-15T04:10:03;-3.00;99.90
76936;DHT22;65881;52.438;16.744;2023-02-15T04:12:47;-3.00;99.90
76936;DHT22;65881;52.438;16.744;2023-02-15T04:15:13;-3.10;99.70
76936;DHT22;65881;52.438;16.744;2023-02-15T04:17:57;-3.20;99.30
76936;DHT22;65881;52.438;16.744;2023-02-15T04:20:23;-3.20;98.60
76936;DHT22;65881;52.438;16.744;2023-02-15T04:23:07;-3.20;98.30
76936;DHT22;65881;52.438;16.744;2023-02-15T04:25:51;-3.40;98.00
76936;DHT22;65881;52.438;16.744;2023-02-15T04:28:17;-3.40;97.90
76936;DHT22;65881;52.438;16.744;2023-02-15T04:30:43;-3.40;97.60
76936;DHT22;65881;52.438;16.744;2023-02-15T04:33:08;-3.50;97.70
76936;DHT22;65881;52.438;16.744;2023-02-15T04:35:34;-3.50;97.50
76936;DHT22;65881;52.438;16.744;2023-02-15T04:38:00;-3.60;97.80
76936;DHT22;65881;52.438;16.744;2023-02-15T04:40:26;-3.60;98.20
76936;DHT22;65881;52.438;16.744;2023-02-15T04:42:51;-3.60;98.20
76936;DHT22;65881;52.438;16.744;2023-02-15T04:45:17;-3.60;98.00
76936;DHT22;65881;52.438;16.744;2023-02-15T04:47:44;-3.60;97.80
76936;DHT22;65881;52.438;16.744;2023-02-15T04:50:10;-3.60;97.70
76936;DHT22;65881;52.438;16.744;2023-02-15T04:52:35;-3.60;97.80
76936;DHT22;65881;52.438;16.744;2023-02-15T04:55:02;-3.60;98.30
76936;DHT22;65881;52.438;16.744;2023-02-15T04:57:27;-3.60;98.30
76936;DHT22;65881;52.438;16.744;2023-02-15T04:59:53;-3.70;98.20
76936;DHT22;65881;52.438;16.744;2023-02-15T05:02:19;-3.70;98.00
76936;DHT22;65881;52.438;16.744;2023-02-15T05:04:44;-3.70;97.70
76936;DHT22;65881;52.438;16.744;2023-02-15T05:07:10;-3.70;97.50
76936;DHT22;65881;52.438;16.744;2023-02-15T05:09:36;-3.80;97.40
76936;DHT22;65881;52.438;16.744;2023-02-15T05:12:02;-3.80;97.20
76936;DHT22;65881;52.438;16.744;2023-02-15T05:14:28;-3.80;97.20
76936;DHT22;65881;52.438;16.744;2023-02-15T05:16:53;-3.80;97.20
76936;DHT22;65881;52.438;16.744;2023-02-15T05:19:19;-3.80;96.90
76936;DHT22;65881;52.438;16.744;2023-02-15T05:21:45;-3.80;96.90
76936;DHT22;65881;52.438;16.744;2023-02-15T05:24:11;-3.80;96.50
76936;DHT22;65881;52.438;16.744;2023-02-15T05:26:55;-3.90;96.50
76936;DHT22;65881;52.438;16.744;2023-02-15T05:29:42;-3.90;96.90
76936;DHT22;65881;52.438;16.744;2023-02-15T05:32:08;-3.90;97.30
76936;DHT22;65881;52.438;16.744;2023-02-15T05:34:33;-4.00;97.60
76936;DHT22;65881;52.438;16.744;2023-02-15T05:36:59;-4.00;98.00
76936;DHT22;65881;52.438;16.744;2023-02-15T05:39:25;-4.00;98.20
76936;DHT22;65881;52.438;16.744;2023-02-15T05:41:50;-4.00;98.30
76936;DHT22;65881;52.438;16.744;2023-02-15T05:44:16;-4.00;98.10
76936;DHT22;65881;52.438;16.744;2023-02-15T05:46:43;-4.00;98.20
76936;DHT22;65881;52.438;16.744;2023-02-15T05:49:09;-4.00;98.00
76936;DHT22;65881;52.438;16.744;2023-02-15T05:51:34;-4.00;97.90
76936;DHT22;65881;52.438;16.744;2023-02-15T05:54:00;-4.00;98.00
76936;DHT22;65881;52.438;16.744;2023-02-15T05:56:26;-4.00;97.80
76936;DHT22;65881;52.438;16.744;2023-02-15T05:58:52;-4.00;98.00
76936;DHT22;65881;52.438;16.744;2023-02-15T06:01:19;-4.00;98.00
76936;DHT22;65881;52.438;16.744;2023-02-15T06:03:47;-4.00;97.90
76936;DHT22;65881;52.438;16.744;2023-02-15T06:06:14;-4.00;97.80
76936;DHT22;65881;52.438;16.744;2023-02-15T06:08:40;-3.90;97.70
76936;DHT22;65881;52.438;16.744;2023-02-15T06:11:06;-3.90;97.80
76936;DHT22;65881;52.438;16.744;2023-02-15T06:13:33;-3.90;97.90
76936;DHT22;65881;52.438;16.744;2023-02-15T06:15:59;-3.90;97.80
76936;DHT22;65881;52.438;16.744;2023-02-15T06:18:25;-3.90;97.50
76936;DHT22;65881;52.438;16.744;2023-02-15T06:20:51;-3.90;97.70
76936;DHT22;65881;52.438;16.744;2023-02-15T06:23:17;-3.80;98.50
76936;DHT22;65881;52.438;16.744;2023-02-15T06:25:45;-3.80;99.00
76936;DHT22;65881;52.438;16.744;2023-02-15T06:28:10;-3.80;98.30
76936;DHT22;65881;52.438;16.744;2023-02-15T06:30:36;-3.80;97.80
76936;DHT22;65881;52.438;16.744;2023-02-15T06:33:02;-3.80;97.00
76936;DHT22;65881;52.438;16.744;2023-02-15T06:35:28;-3.80;96.70
76936;DHT22;65881;52.438;16.744;2023-02-15T06:37:53;-3.80;96.70
76936;DHT22;65881;52.438;16.744;2023-02-15T06:40:19;-3.80;97.00
76936;DHT22;65881;52.438;16.744;2023-02-15T06:42:45;-3.80;97.30
76936;DHT22;65881;52.438;16.744;2023-02-15T06:45:11;-3.80;97.30
76936;DHT22;65881;52.438;16.744;2023-02-15T06:47:38;-3.80;97.40
76936;DHT22;65881;52.438;16.744;2023-02-15T06:50:05;-3.80;97.30
76936;DHT22;65881;52.438;16.744;2023-02-15T06:52:31;-3.70;97.40
76936;DHT22;65881;52.438;16.744;2023-02-15T06:54:56;-3.60;97.90
76936;DHT22;65881;52.438;16.744;2023-02-15T06:57:22;-3.60;98.90
76936;DHT22;65881;52.438;16.744;2023-02-15T06:59:48;-3.50;98.70
76936;DHT22;65881;52.438;16.744;2023-02-15T07:02:14;-3.50;98.50
76936;DHT22;65881;52.438;16.744;2023-02-15T07:04:40;-3.40;98.60
76936;DHT22;65881;52.438;16.744;2023-02-15T07:07:09;-3.20;99.00
76936;DHT22;65881;52.438;16.744;2023-02-15T07:09:36;-3.10;98.50
76936;DHT22;65881;52.438;16.744;2023-02-15T07:12:02;-3.10;97.70
76936;DHT22;65881;52.438;16.744;2023-02-15T07:14:46;-3.00;97.20
76936;DHT22;65881;52.438;16.744;2023-02-15T07:17:11;-3.00;96.80
76936;DHT22;65881;52.438;16.744;2023-02-15T07:19:37;-3.00;96.90
76936;DHT22;65881;52.438;16.744;2023-02-15T07:22:03;-2.90;97.10
76936;DHT22;65881;52.438;16.744;2023-02-15T07:24:30;-2.90;96.90
76936;DHT22;65881;52.438;16.744;2023-02-15T07:26:56;-2.90;97.00
76936;DHT22;65881;52.438;16.744;2023-02-15T07:29:23;-2.80;98.00
76936;DHT22;65881;52.438;16.744;2023-02-15T07:31:50;-2.70;98.70
76936;DHT22;65881;52.438;16.744;2023-02-15T07:34:16;-2.60;99.50
76936;DHT22;65881;52.438;16.744;2023-02-15T07:36:42;-2.50;99.80
76936;DHT22;65881;52.438;16.744;2023-02-15T07:39:10;-2.40;99.90
76936;DHT22;65881;52.438;16.744;2023-02-15T07:41:35;-2.20;99.90
76936;DHT22;65881;52.438;16.744;2023-02-15T07:44:01;-2.00;99.90
76936;DHT22;65881;52.438;16.744;2023-02-15T07:46:27;-1.80;99.90
76936;DHT22;65881;52.438;16.744;2023-02-15T07:48:53;-1.80;99.90
76936;DHT22;65881;52.438;16.744;2023-02-15T07:51:19;-1.70;99.90
76936;DHT22;65881;52.438;16.744;2023-02-15T07:53:45;-1.50;99.90
76936;DHT22;65881;52.438;16.744;2023-02-15T07:56:13;-1.40;99.90
76936;DHT22;65881;52.438;16.744;2023-02-15T07:58:39;-1.30;99.90
76936;DHT22;65881;52.438;16.744;2023-02-15T08:01:36;-1.20;99.90
76936;DHT22;65881;52.438;16.744;2023-02-15T08:04:04;-1.10;99.90
76936;DHT22;65881;52.438;16.744;2023-02-15T08:06:33;-0.90;99.90
76936;DHT22;65881;52.438;16.744;2023-02-15T08:09:04;-0.80;99.90
76936;DHT22;65881;52.438;16.744;2023-02-15T08:11:31;-0.60;99.60
76936;DHT22;65881;52.438;16.744;2023-02-15T08:14:07;-0.50;99.30
76936;DHT22;65881;52.438;16.744;2023-02-15T08:21:31;0.30;98.00
76936;DHT22;65881;52.438;16.744;2023-02-15T08:23:58;0.60;95.70
76936;DHT22;65881;52.438;16.744;2023-02-15T08:26:24;0.80;93.60
76936;DHT22;65881;52.438;16.744;2023-02-15T08:28:51;0.90;93.50
76936;DHT22;65881;52.438;16.744;2023-02-15T08:31:17;1.00;93.00
76936;DHT22;65881;52.438;16.744;2023-02-15T08:33:44;1.20;92.50
76936;DHT22;65881;52.438;16.744;2023-02-15T08:36:13;1.30;91.80
76936;DHT22;65881;52.438;16.744;2023-02-15T08:38:51;1.60;91.10
76936;DHT22;65881;52.438;16.744;2023-02-15T08:41:20;1.90;90.20
76936;DHT22;65881;52.438;16.744;2023-02-15T08:43:49;2.70;88.00
76936;DHT22;65881;52.438;16.744;2023-02-15T08:46:22;3.10;85.10
76936;DHT22;65881;52.438;16.744;2023-02-15T08:48:49;3.30;83.20
76936;DHT22;65881;52.438;16.744;2023-02-15T08:51:20;3.10;83.30
76936;DHT22;65881;52.438;16.744;2023-02-15T08:53:48;3.00;84.60
76936;DHT22;65881;52.438;16.744;2023-02-15T08:56:15;2.80;85.50
76936;DHT22;65881;52.438;16.744;2023-02-15T08:58:42;2.50;85.00
76936;DHT22;65881;52.438;16.744;2023-02-15T09:01:13;2.30;86.90
76936;DHT22;65881;52.438;16.744;2023-02-15T09:03:39;2.40;86.40
76936;DHT22;65881;52.438;16.744;2023-02-15T09:06:05;2.30;87.30
76936;DHT22;65881;52.438;16.744;2023-02-15T09:08:38;2.40;86.60
76936;DHT22;65881;52.438;16.744;2023-02-15T09:11:08;2.40;87.10
76936;DHT22;65881;52.438;16.744;2023-02-15T09:13:35;2.50;86.80
76936;DHT22;65881;52.438;16.744;2023-02-15T09:16:05;2.70;86.50
76936;DHT22;65881;52.438;16.744;2023-02-15T09:18:32;2.90;85.70
76936;DHT22;65881;52.438;16.744;2023-02-15T09:21:05;3.30;85.00
76936;DHT22;65881;52.438;16.744;2023-02-15T09:23:31;3.30;84.60
76936;DHT22;65881;52.438;16.744;2023-02-15T09:25:57;3.50;84.10
76936;DHT22;65881;52.438;16.744;2023-02-15T09:28:22;3.90;83.30
76936;DHT22;65881;52.438;16.744;2023-02-15T09:30:48;3.90;81.60
76936;DHT22;65881;52.438;16.744;2023-02-15T09:33:14;3.70;83.00
76936;DHT22;65881;52.438;16.744;2023-02-15T09:35:40;3.50;82.90
76936;DHT22;65881;52.438;16.744;2023-02-15T09:38:05;3.50;82.70
76936;DHT22;65881;52.438;16.744;2023-02-15T09:40:37;3.50;83.80
76936;DHT22;65881;52.438;16.744;2023-02-15T09:43:29;3.30;84.20
76936;DHT22;65881;52.438;16.744;2023-02-15T09:46:18;3.50;83.40
76936;DHT22;65881;52.438;16.744;2023-02-15T09:48:49;3.50;83.40
76936;DHT22;65881;52.438;16.744;2023-02-15T09:56:48;3.60;82.50
76936;DHT22;65881;52.438;16.744;2023-02-15T09:59:18;3.60;83.40
76936;DHT22;65881;52.438;16.744;2023-02-15T10:07:42;3.60;82.90
76936;DHT22;65881;52.438;16.744;2023-02-15T10:13:44;3.90;81.80
76936;DHT22;65881;52.438;16.744;2023-02-15T10:16:31;4.00;81.50
76936;DHT22;65881;52.438;16.744;2023-02-15T10:19:16;4.00;81.50
76936;DHT22;65881;52.438;16.744;2023-02-15T10:27:20;4.20;82.20
76936;DHT22;65881;52.438;16.744;2023-02-15T10:29:57;4.20;81.10
76936;DHT22;65881;52.438;16.744;2023-02-15T10:32:27;4.40;81.80
76936;DHT22;65881;52.438;16.744;2023-02-15T10:35:22;4.60;80.70
76936;DHT22;65881;52.438;16.744;2023-02-15T10:38:27;4.70;80.10
76936;DHT22;65881;52.438;16.744;2023-02-15T10:43:55;5.00;77.40
76936;DHT22;65881;52.438;16.744;2023-02-15T10:46:43;5.00;77.20
76936;DHT22;65881;52.438;16.744;2023-02-15T10:59:18;5.30;76.40
76936;DHT22;65881;52.438;16.744;2023-02-15T11:01:43;5.60;75.20
76936;DHT22;65881;52.438;16.744;2023-02-15T11:07:04;5.80;73.60
76936;DHT22;65881;52.438;16.744;2023-02-15T11:09:37;5.90;74.00
76936;DHT22;65881;52.438;16.744;2023-02-15T11:12:10;5.80;73.50
76936;DHT22;65881;52.438;16.744;2023-02-15T11:14:49;5.90;73.60
76936;DHT22;65881;52.438;16.744;2023-02-15T11:17:43;5.80;74.30
76936;DHT22;65881;52.438;16.744;2023-02-15T11:20:25;5.70;73.20
76936;DHT22;65881;52.438;16.744;2023-02-15T11:22:53;5.70;73.20
76936;DHT22;65881;52.438;16.744;2023-02-15T11:25:23;5.90;72.00
76936;DHT22;65881;52.438;16.744;2023-02-15T11:27:49;5.80;72.80
76936;DHT22;65881;52.438;16.744;2023-02-15T11:30:23;6.00;71.60
76936;DHT22;65881;52.438;16.744;2023-02-15T11:32:54;6.10;72.10
76936;DHT22;65881;52.438;16.744;2023-02-15T11:35:28;6.00;71.60
76936;DHT22;65881;52.438;16.744;2023-02-15T11:38:28;6.10;71.70
76936;DHT22;65881;52.438;16.744;2023-02-15T11:40:57;6.30;71.50
76936;DHT22;65881;52.438;16.744;2023-02-15T11:43:46;6.40;70.90
76936;DHT22;65881;52.438;16.744;2023-02-15T11:46:15;6.40;70.50
76936;DHT22;65881;52.438;16.744;2023-02-15T11:48:41;6.60;69.50
76936;DHT22;65881;52.438;16.744;2023-02-15T11:51:20;6.80;68.80
76936;DHT22;65881;52.438;16.744;2023-02-15T11:53:47;6.80;69.20
76936;DHT22;65881;52.438;16.744;2023-02-15T11:56:17;6.50;70.40
76936;DHT22;65881;52.438;16.744;2023-02-15T12:01:44;6.70;69.10
76936;DHT22;65881;52.438;16.744;2023-02-15T12:06:51;6.80;69.80
76936;DHT22;65881;52.438;16.744;2023-02-15T12:12:24;7.20;68.10
76936;DHT22;65881;52.438;16.744;2023-02-15T12:14:53;7.20;68.00
76936;DHT22;65881;52.438;16.744;2023-02-15T12:17:27;7.30;67.60
76936;DHT22;65881;52.438;16.744;2023-02-15T12:20:00;7.50;67.50
76936;DHT22;65881;52.438;16.744;2023-02-15T12:22:32;7.30;68.20
76936;DHT22;65881;52.438;16.744;2023-02-15T12:25:04;7.30;67.90
76936;DHT22;65881;52.438;16.744;2023-02-15T12:27:45;7.20;68.50
76936;DHT22;65881;52.438;16.744;2023-02-15T12:33:56;7.40;67.20
76936;DHT22;65881;52.438;16.744;2023-02-15T12:38:37;7.50;66.30
76936;DHT22;65881;52.438;16.744;2023-02-15T12:41:24;7.70;65.80
76936;DHT22;65881;52.438;16.744;2023-02-15T12:44:18;7.40;66.40
76936;DHT22;65881;52.438;16.744;2023-02-15T12:49:36;7.30;68.00
76936;DHT22;65881;52.438;16.744;2023-02-15T12:52:24;7.50;66.50
76936;DHT22;65881;52.438;16.744;2023-02-15T12:55:26;7.60;66.00
76936;DHT22;65881;52.438;16.744;2023-02-15T12:58:06;7.60;65.40
76936;DHT22;65881;52.438;16.744;2023-02-15T13:00:32;7.50;66.30
76936;DHT22;65881;52.438;16.744;2023-02-15T13:03:00;7.50;67.00
76936;DHT22;65881;52.438;16.744;2023-02-15T13:05:37;7.50;66.20
76936;DHT22;65881;52.438;16.744;2023-02-15T13:08:49;7.50;66.20
76936;DHT22;65881;52.438;16.744;2023-02-15T13:11:10;7.40;67.00
76936;DHT22;65881;52.438;16.744;2023-02-15T13:13:53;7.20;67.60
76936;DHT22;65881;52.438;16.744;2023-02-15T13:16:20;7.30;68.10
76936;DHT22;65881;52.438;16.744;2023-02-15T13:18:47;7.20;68.70
76936;DHT22;65881;52.438;16.744;2023-02-15T13:21:24;7.30;67.70
76936;DHT22;65881;52.438;16.744;2023-02-15T13:26:26;7.30;67.60
76936;DHT22;65881;52.438;16.744;2023-02-15T13:28:55;7.10;68.20
76936;DHT22;65881;52.438;16.744;2023-02-15T13:31:25;7.20;68.40
76936;DHT22;65881;52.438;16.744;2023-02-15T13:34:17;7.10;68.50
76936;DHT22;65881;52.438;16.744;2023-02-15T13:48:20;6.90;68.70
76936;DHT22;65881;52.438;16.744;2023-02-15T13:56:36;7.00;68.60
76936;DHT22;65881;52.438;16.744;2023-02-15T13:59:52;7.00;68.60
76936;DHT22;65881;52.438;16.744;2023-02-15T14:10:52;7.20;68.90
76936;DHT22;65881;52.438;16.744;2023-02-15T14:21:32;7.00;69.20
76936;DHT22;65881;52.438;16.744;2023-02-15T14:26:59;6.90;70.40
76936;DHT22;65881;52.438;16.744;2023-02-15T14:29:48;6.90;69.80
76936;DHT22;65881;52.438;16.744;2023-02-15T14:34:57;6.70;71.10
76936;DHT22;65881;52.438;16.744;2023-02-15T14:40:36;6.70;71.30
76936;DHT22;65881;52.438;16.744;2023-02-15T14:45:55;6.60;71.70
76936;DHT22;65881;52.438;16.744;2023-02-15T14:48:28;6.70;71.60
76936;DHT22;65881;52.438;16.744;2023-02-15T14:50:55;6.60;72.00
76936;DHT22;65881;52.438;16.744;2023-02-15T14:56:17;6.50;72.70
76936;DHT22;65881;52.438;16.744;2023-02-15T15:01:29;6.40;73.00
76936;DHT22;65881;52.438;16.744;2023-02-15T15:04:13;6.30;73.10
76936;DHT22;65881;52.438;16.744;2023-02-15T15:06:42;6.40;74.50
76936;DHT22;65881;52.438;16.744;2023-02-15T15:11:49;6.20;73.70
76936;DHT22;65881;52.438;16.744;2023-02-15T15:17:02;6.10;73.70
76936;DHT22;65881;52.438;16.744;2023-02-15T15:22:21;6.00;74.60
76936;DHT22;65881;52.438;16.744;2023-02-15T15:24:49;5.90;74.80
76936;DHT22;65881;52.438;16.744;2023-02-15T15:40:55;5.50;76.40
76936;DHT22;65881;52.438;16.744;2023-02-15T15:43:34;5.30;76.50
76936;DHT22;65881;52.438;16.744;2023-02-15T15:49:15;5.00;77.70
76936;DHT22;65881;52.438;16.744;2023-02-15T15:51:42;4.90;78.20
76936;DHT22;65881;52.438;16.744;2023-02-15T15:54:26;4.80;78.40
76936;DHT22;65881;52.438;16.744;2023-02-15T15:57:05;4.70;78.50
76936;DHT22;65881;52.438;16.744;2023-02-15T15:59:33;4.50;79.30
76936;DHT22;65881;52.438;16.744;2023-02-15T16:02:07;4.50;79.40
76936;DHT22;65881;52.438;16.744;2023-02-15T16:04:34;4.50;79.50
76936;DHT22;65881;52.438;16.744;2023-02-15T16:12:29;4.20;80.60
76936;DHT22;65881;52.438;16.744;2023-02-15T16:14:56;4.10;80.80
76936;DHT22;65881;52.438;16.744;2023-02-15T16:17:27;4.00;81.30
76936;DHT22;65881;52.438;16.744;2023-02-15T16:20:03;3.90;81.20
76936;DHT22;65881;52.438;16.744;2023-02-15T16:22:32;3.60;81.40
76936;DHT22;65881;52.438;16.744;2023-02-15T16:30:37;3.30;83.40
76936;DHT22;65881;52.438;16.744;2023-02-15T16:33:06;3.10;83.60
76936;DHT22;65881;52.438;16.744;2023-02-15T16:35:32;3.10;84.40
76936;DHT22;65881;52.438;16.744;2023-02-15T16:37:58;3.10;85.00
76936;DHT22;65881;52.438;16.744;2023-02-15T16:42:59;3.10;84.70
76936;DHT22;65881;52.438;16.744;2023-02-15T16:45:27;3.10;84.80
76936;DHT22;65881;52.438;16.744;2023-02-15T16:47:57;3.10;84.80
76936;DHT22;65881;52.438;16.744;2023-02-15T16:50:30;3.00;84.90
76936;DHT22;65881;52.438;16.744;2023-02-15T16:52:57;3.00;85.00
76936;DHT22;65881;52.438;16.744;2023-02-15T16:55:43;3.00;85.10
76936;DHT22;65881;52.438;16.744;2023-02-15T16:58:17;2.90;85.40
76936;DHT22;65881;52.438;16.744;2023-02-15T17:00:46;2.90;85.50
76936;DHT22;65881;52.438;16.744;2023-02-15T17:05:46;2.80;85.20
76936;DHT22;65881;52.438;16.744;2023-02-15T17:08:33;2.80;84.80
76936;DHT22;65881;52.438;16.744;2023-02-15T17:13:28;2.70;84.90
76936;DHT22;65881;52.438;16.744;2023-02-15T17:18:33;2.60;85.10
76936;DHT22;65881;52.438;16.744;2023-02-15T17:21:12;2.50;84.20
76936;DHT22;65881;52.438;16.744;2023-02-15T17:23:47;2.20;84.80
76936;DHT22;65881;52.438;16.744;2023-02-15T17:28:49;1.70;86.80
76936;DHT22;65881;52.438;16.744;2023-02-15T17:31:17;1.60;87.60
76936;DHT22;65881;52.438;16.744;2023-02-15T17:33:43;1.50;88.20
76936;DHT22;65881;52.438;16.744;2023-02-15T17:36:18;1.40;88.40
76936;DHT22;65881;52.438;16.744;2023-02-15T17:41:29;1.40;88.90
76936;DHT22;65881;52.438;16.744;2023-02-15T17:43:55;1.40;89.10
76936;DHT22;65881;52.438;16.744;2023-02-15T17:46:22;1.40;89.70
76936;DHT22;65881;52.438;16.744;2023-02-15T17:48:51;1.40;89.80
76936;DHT22;65881;52.438;16.744;2023-02-15T17:51:18;1.40;89.50
76936;DHT22;65881;52.438;16.744;2023-02-15T17:53:45;1.40;89.90
76936;DHT22;65881;52.438;16.744;2023-02-15T17:56:29;1.40;90.40
76936;DHT22;65881;52.438;16.744;2023-02-15T17:58:55;1.50;90.00
76936;DHT22;65881;52.438;16.744;2023-02-15T18:01:21;1.50;90.00
76936;DHT22;65881;52.438;16.744;2023-02-15T18:04:11;1.50;89.60
76936;DHT22;65881;52.438;16.744;2023-02-15T18:06:56;1.50;89.40
76936;DHT22;65881;52.438;16.744;2023-02-15T18:09:41;1.50;89.60
76936;DHT22;65881;52.438;16.744;2023-02-15T18:12:31;1.60;89.80
76936;DHT22;65881;52.438;16.744;2023-02-15T18:14:57;1.60;89.80
76936;DHT22;65881;52.438;16.744;2023-02-15T18:20:02;1.60;89.20
76936;DHT22;65881;52.438;16.744;2023-02-15T18:22:32;1.50;89.00
76936;DHT22;65881;52.438;16.744;2023-02-15T18:24:58;1.40;89.10
76936;DHT22;65881;52.438;16.744;2023-02-15T18:27:24;1.40;89.40
76936;DHT22;65881;52.438;16.744;2023-02-15T18:29:49;1.40;89.90
76936;DHT22;65881;52.438;16.744;2023-02-15T18:32:30;1.40;90.00
76936;DHT22;65881;52.438;16.744;2023-02-15T18:34:57;1.40;89.70
76936;DHT22;65881;52.438;16.744;2023-02-15T18:37:26;1.40;90.00
76936;DHT22;65881;52.438;16.744;2023-02-15T18:39:55;1.40;89.90
76936;DHT22;65881;52.438;16.744;2023-02-15T18:44:50;1.10;89.70
76936;DHT22;65881;52.438;16.744;2023-02-15T18:47:17;1.10;90.00
76936;DHT22;65881;52.438;16.744;2023-02-15T18:49:44;1.00;90.20
76936;DHT22;65881;52.438;16.744;2023-02-15T18:52:18;1.00;91.10
76936;DHT22;65881;52.438;16.744;2023-02-15T18:54:45;1.00;91.70
76936;DHT22;65881;52.438;16.744;2023-02-15T18:57:15;1.00;91.40
76936;DHT22;65881;52.438;16.744;2023-02-15T18:59:41;1.00;91.20
76936;DHT22;65881;52.438;16.744;2023-02-15T19:02:15;0.80;91.20
76936;DHT22;65881;52.438;16.744;2023-02-15T19:04:42;0.80;91.80